M/V C0sta Favolosa — ICPK — position and weather

sailwx.info

Track history (hours):
 
Tides and Currents Weather Stations Pressure Air Temp Water Temp Dewpoint Dewpoint Depression Visibility Wind Speed Wind Dir Waves Ship Positions

M/V C0sta Favolosa

Last reported at 2019-May-20 17:00 UTC. Time now 2019-May-20 17:15 UTC.
Position N 43°12' E 005°09'.

Length 289 m; draft 8.3 m.

Type: Passenger vessel. MMSI: 247311100.

Date/timePositionNaut miles runAvg speedWind from/ knotsBaromVisibWave heightAir tempDewpointWater temp
2019-May-20 17:00N 43°12' E 005°09'1016.8
2019-May-20 16:25N 43°20' E 005°17'2 3.8
2019-May-20 15:58N 43°21' E 005°20'0 0.0
2019-May-20 15:22N 43°21' E 005°20'0 0.0
2019-May-20 11:37N 43°21' E 005°20'0 0.0
2019-May-20 11:28N 43°21' E 005°20'0 0.0
2019-May-20 10:58N 43°21' E 005°20'0 0.0
2019-May-20 10:28N 43°21' E 005°20'0 0.0
2019-May-20 09:58N 43°21' E 005°20'0 0.0
2019-May-20 09:28N 43°21' E 005°20'0 0.0
2019-May-20 08:55N 43°21' E 005°20'0 0.0
2019-May-20 05:21N 43°21' E 005°20'1 2.0
2019-May-20 05:01N 43°21' E 005°19'5 9.4
2019-May-20 04:31N 43°18' E 005°14'813.9
2019-May-20 03:58N 43°11' E 005°11'7012.2
2019-May-19 22:13N 42°57' E 006°44'519.7
2019-May-19 21:59N 42°59' E 006°49'919.4
2019-May-19 21:30N 43°05' E 006°60'1019.5
2019-May-19 21:00N 43°11' E 007°10'1019.4
2019-May-19 20:30N 43°18' E 007°20'1019.8
2019-May-19 20:00N 43°24' E 007°30'1020.1
2019-May-19 19:30N 43°31' E 007°40'1019.9
2019-May-19 19:00N 43°38' E 007°50'1020.1
2019-May-19 18:30N 43°44' E 008°01'1020.1
2019-May-19 18:00N 43°51' E 008°11'1019.7
2019-May-19 17:30N 43°58' E 008°20'1019.5
2019-May-19 17:00N 44°06' E 008°28'918.5
2019-May-19 16:30N 44°14' E 008°34'510.5
2019-May-19 16:00N 44°19' E 008°30'1 1.4
2019-May-19 15:28N 44°19' E 008°29'0 0.0
2019-May-19 14:58N 44°19' E 008°29'0 0.0
2019-May-19 14:28N 44°19' E 008°29'0 0.0
2019-May-19 13:58N 44°19' E 008°29'0 0.0
2019-May-19 13:28N 44°19' E 008°29'0 0.0
2019-May-19 12:58N 44°19' E 008°29'0 0.0
2019-May-19 12:28N 44°19' E 008°29'0 0.0
2019-May-19 11:58N 44°19' E 008°29'0 0.0
2019-May-19 11:28N 44°19' E 008°29'0 0.0
2019-May-19 10:58N 44°19' E 008°29'0 0.0
2019-May-19 10:27N 44°19' E 008°29'0 0.0
2019-May-19 10:00N 44°19' E 008°29'0 0.0
2019-May-19 09:30N 44°19' E 008°29'0 0.0
2019-May-19 09:00N 44°19' E 008°29'0 0.0
2019-May-19 08:30N 44°19' E 008°29'0 0.0
2019-May-19 08:00N 44°19' E 008°29'0 0.0
2019-May-19 07:30N 44°19' E 008°29'0 0.0
2019-May-19 07:00N 44°19' E 008°29'0 0.0
2019-May-19 06:30N 44°19' E 008°29'0 0.0
2019-May-19 05:59N 44°19' E 008°29'0 0.0
2019-May-19 05:29N 44°19' E 008°29'0 0.8
2019-May-19 05:00N 44°19' E 008°30'2 4.0
2019-May-19 04:30N 44°18' E 008°32'510.8
2019-May-19 04:00N 44°13' E 008°34'713.7
2019-May-19 03:30N 44°06' E 008°34'713.3
2019-May-19 03:00N 43°59' E 008°34'713.3
2019-May-19 02:30N 43°53' E 008°35'713.2
2019-May-19 02:00N 43°46' E 008°36'713.0
2019-May-19 01:30N 43°40' E 008°38'612.6
2019-May-19 01:00N 43°33' E 008°38'612.3
2019-May-19 00:30N 43°27' E 008°38'612.2
2019-May-19 00:00N 43°21' E 008°38'712.5
2019-May-18 23:27N 43°14' E 008°41'612.4
2019-May-18 23:00N 43°10' E 008°36'713.5
2019-May-18 22:30N 43°07' E 008°28'713.1
2019-May-18 22:00N 43°06' E 008°19'713.3
2019-May-18 21:30N 43°08' E 008°10'612.6
2019-May-18 21:00N 43°07' E 008°02'611.2
2019-May-18 20:30N 43°11' E 007°56'510.6
2019-May-18 20:00N 43°13' E 007°50'611.7
2019-May-18 19:31N 43°09' E 007°43'713.0
2019-May-18 19:00N 43°09' E 007°35'611.7
2019-May-18 18:30N 43°13' E 007°28'612.3
2019-May-18 18:01N 43°08' E 007°24'510.4
2019-May-18 17:30N 43°12' E 007°19'510.3
2019-May-18 17:00N 43°12' E 007°12'612.8
2019-May-18 16:30N 43°07' E 007°06'613.0
2019-May-18 16:01N 43°02' E 006°60'712.9
2019-May-18 15:30N 42°58' E 006°54'812.5
2019-May-18 14:53N 42°52' E 006°46'512.4
2019-May-18 14:30N 42°48' E 006°42'612.4
2019-May-18 14:01N 42°44' E 006°36'1012.5
2019-May-18 13:12N 42°37' E 006°27'3512.5
2019-May-18 10:26N 42°47' E 005°42'2011.2
2019-May-18 08:40N 42°46' E 005°15'13810.4
2019-May-17 19:23N 41°24' E 002°46'411.6
2019-May-17 19:00N 41°22' E 002°40'611.9
2019-May-17 18:30N 41°18' E 002°34'611.8
2019-May-17 18:00N 41°16' E 002°27'612.0
2019-May-17 17:30N 41°14' E 002°19'510.7
2019-May-17 17:00N 41°15' E 002°12'611.6
2019-May-17 16:30N 41°20' E 002°10'1 1.9
2019-May-17 15:59N 41°21' E 002°11'0 0.0
2019-May-17 15:29N 41°21' E 002°11'0 0.0
2019-May-17 14:59N 41°21' E 002°11'0 0.0
2019-May-17 14:29N 41°21' E 002°11'0 0.0
2019-May-17 13:59N 41°21' E 002°11'0 0.0
2019-May-17 13:29N 41°21' E 002°11'0 0.0
2019-May-17 12:58N 41°21' E 002°11'0 0.0
2019-May-17 12:28N 41°21' E 002°11'0 0.0
2019-May-17 11:58N 41°21' E 002°11'0 0.0
2019-May-17 11:25N 41°21' E 002°11'0 0.0
2019-May-17 10:56N 41°21' E 002°11'0 0.0
2019-May-17 10:29N 41°21' E 002°11'0 0.0
2019-May-17 09:59N 41°21' E 002°11'0 0.0
2019-May-17 09:29N 41°21' E 002°11'0 0.0
2019-May-17 08:59N 41°21' E 002°11'0 0.0
2019-May-17 08:29N 41°21' E 002°11'0 0.0
2019-May-17 07:59N 41°21' E 002°11'0 0.0
2019-May-17 07:29N 41°21' E 002°11'0 0.0
2019-May-17 06:59N 41°21' E 002°11'0 0.0
2019-May-17 06:29N 41°21' E 002°11'0 0.0
2019-May-17 05:59N 41°21' E 002°11'2 1.7
2019-May-17 04:44N 41°19' E 002°10'3 9.2
2019-May-17 04:23N 41°16' E 002°12'16915.1
2019-May-16 17:12N 43°08' E 005°02'418.7
2019-May-16 16:59N 43°11' E 005°06'918.3
2019-May-16 16:31N 43°17' E 005°14'6 9.2
2019-May-16 15:54N 43°21' E 005°20'0 0.0
2019-May-16 05:37N 43°21' E 005°20'0 1.1
2019-May-16 05:30N 43°21' E 005°20'2 4.4
2019-May-16 05:00N 43°21' E 005°17'611.2
2019-May-16 04:29N 43°16' E 005°11'7111.9
2019-May-15 22:29N 42°56' E 006°44'1019.6
2019-May-15 21:59N 43°01' E 006°55'1019.8
2019-May-15 21:29N 43°08' E 007°05'919.8
2019-May-15 21:01N 43°14' E 007°15'1019.8
2019-May-15 20:31N 43°20' E 007°25'1019.8
2019-May-15 20:01N 43°27' E 007°36'1019.9
2019-May-15 19:31N 43°34' E 007°46'1019.9
2019-May-15 19:01N 43°39' E 007°57'1019.8
2019-May-15 18:31N 43°45' E 008°08'1019.7
2019-May-15 17:59N 43°53' E 008°17'919.5
2019-May-15 17:31N 44°01' E 008°24'1019.4
2019-May-15 17:01N 44°09' E 008°31'815.9
2019-May-15 16:31N 44°17' E 008°32'2 4.2
2019-May-15 16:00N 44°19' E 008°29'0 0.2
2019-May-15 15:29N 44°19' E 008°29'0 0.0
2019-May-15 14:59N 44°19' E 008°29'0 0.0
2019-May-15 14:29N 44°19' E 008°29'0 0.0
2019-May-15 13:59N 44°19' E 008°29'0 0.0
2019-May-15 13:29N 44°19' E 008°29'0 0.0
2019-May-15 12:59N 44°19' E 008°29'0 0.0
2019-May-15 12:29N 44°19' E 008°29'0 0.0
2019-May-15 11:59N 44°19' E 008°29'0 0.0
2019-May-15 11:29N 44°19' E 008°29'0 0.0
2019-May-15 10:59N 44°19' E 008°29'0 0.0
2019-May-15 10:29N 44°19' E 008°29'0 0.0
2019-May-15 09:59N 44°19' E 008°29'0 0.0
2019-May-15 09:29N 44°19' E 008°29'0 0.0
2019-May-15 08:59N 44°19' E 008°29'0 0.0
2019-May-15 08:29N 44°19' E 008°29'0 0.0
2019-May-15 07:59N 44°19' E 008°29'0 0.0
2019-May-15 07:29N 44°19' E 008°29'0 0.0
2019-May-15 06:59N 44°19' E 008°29'0 0.0
2019-May-15 06:29N 44°19' E 008°29'0 0.0
2019-May-15 05:59N 44°19' E 008°29'0 0.0
2019-May-15 05:29N 44°19' E 008°29'0 0.8
2019-May-15 05:00N 44°19' E 008°30'3 5.1
2019-May-15 04:31N 44°17' E 008°32'713.5
2019-May-15 04:00N 44°10' E 008°32'1019.6
2019-May-15 03:30N 44°02' E 008°24'918.9
2019-May-15 03:00N 43°55' E 008°17'918.6
2019-May-15 02:30N 43°48' E 008°07'917.8
2019-May-15 02:00N 43°42' E 007°58'917.8
2019-May-15 01:30N 43°36' E 007°49'918.0
2019-May-15 01:00N 43°30' E 007°40'918.4
2019-May-15 00:30N 43°24' E 007°31'1121.1
2019-May-15 00:00N 43°17' E 007°20'1121.4
2019-May-14 23:30N 43°10' E 007°09'1121.3
2019-May-14 23:00N 43°03' E 006°58'1121.1
2019-May-14 22:30N 42°55' E 006°48'2021.1
2019-May-14 21:34N 42°44' E 006°25'12321.7
2019-May-14 15:54N 41°50' E 003°56'3221.5
2019-May-14 14:25N 41°35' E 003°18'2021.2
2019-May-14 13:28N 41°27' E 002°53'1021.3
2019-May-14 13:00N 41°23' E 002°42'1121.5
2019-May-14 12:30N 41°18' E 002°29'1020.9
2019-May-14 12:00N 41°15' E 002°15'611.2
2019-May-14 11:30N 41°19' E 002°10'2 4.4
2019-May-14 10:59N 41°21' E 002°10'0 0.0
2019-May-14 10:29N 41°21' E 002°10'0 0.0
2019-May-14 09:55N 41°21' E 002°10'0 0.0
2019-May-14 09:30N 41°21' E 002°10'0 0.0
2019-May-14 09:00N 41°21' E 002°10'0 0.0
2019-May-14 08:29N 41°21' E 002°10'0 0.0
2019-May-14 07:59N 41°21' E 002°10'0 0.0
2019-May-14 07:29N 41°21' E 002°10'0 0.0
2019-May-14 06:59N 41°21' E 002°10'0 0.0
2019-May-14 06:29N 41°21' E 002°10'0 0.0
2019-May-14 05:59N 41°21' E 002°10'0 0.0
2019-May-14 05:29N 41°21' E 002°10'0 0.9
2019-May-14 05:00N 41°21' E 002°10'3 5.7
2019-May-14 04:30N 41°18' E 002°11'611.0
2019-May-14 04:00N 41°12' E 002°10'612.9
2019-May-14 03:30N 41°07' E 002°06'612.8
2019-May-14 03:00N 41°01' E 002°03'713.1
2019-May-14 02:30N 40°55' E 001°59'713.2
2019-May-14 01:58N 40°48' E 001°55'2113.6
2019-May-14 00:24N 40°29' E 001°43'47910.6
2019-May-12 03:13N 36°31' W 007°09'2221.1
2019-May-12 02:10N 36°31' W 007°37'420.8
2019-May-12 01:59N 36°31' W 007°42'1120.9
2019-May-12 01:27N 36°32' W 007°55'921.2
2019-May-12 01:00N 36°32' W 008°07'1121.4
2019-May-12 00:30N 36°31' W 008°21'1121.4
2019-May-11 23:59N 36°31' W 008°34'1021.5
2019-May-11 23:30N 36°32' W 008°47'1121.7
2019-May-11 23:00N 36°32' W 009°01'1121.6
2019-May-11 22:30N 36°33' W 009°14'1020.7
2019-May-11 22:01N 36°39' W 009°24'1121.3
2019-May-11 21:31N 36°48' W 009°32'1121.6
2019-May-11 21:00N 36°58' W 009°35'1121.8
2019-May-11 20:30N 37°09' W 009°35'1121.8
2019-May-11 20:00N 37°20' W 009°34'1121.6
2019-May-11 19:31N 37°31' W 009°33'1121.8
2019-May-11 19:01N 37°42' W 009°32'1121.7
2019-May-11 18:31N 37°53' W 009°31'1121.7
2019-May-11 18:01N 38°03' W 009°30'1122.0
2019-May-11 17:30N 38°14' W 009°28'1121.9
2019-May-11 17:01N 38°25' W 009°27'1020.9
2019-May-11 16:31N 38°36' W 009°25'816.5
2019-May-11 16:00N 38°41' W 009°17'611.2
2019-May-11 15:30N 38°42' W 009°10'2 4.0
2019-May-11 15:00N 38°43' W 009°08'0 0.0
2019-May-11 14:30N 38°43' W 009°08'0 0.0
2019-May-11 14:00N 38°43' W 009°08'0 0.0
2019-May-11 13:30N 38°43' W 009°08'0 0.0
2019-May-11 13:00N 38°43' W 009°08'0 0.0
2019-May-11 12:30N 38°43' W 009°08'0 0.0
2019-May-11 11:58N 38°43' W 009°08'0 0.0
2019-May-11 11:28N 38°43' W 009°08'0 0.0
2019-May-11 10:58N 38°43' W 009°08'0 0.0
2019-May-11 10:28N 38°43' W 009°08'0 0.0
2019-May-11 10:00N 38°43' W 009°08'0 0.0
2019-May-11 09:28N 38°43' W 009°08'0 0.0
2019-May-11 08:58N 38°43' W 009°08'0 0.0
2019-May-11 08:28N 38°43' W 009°08'0 0.0
2019-May-11 07:58N 38°43' W 009°08'0 0.0
2019-May-11 07:29N 38°43' W 009°08'0 0.0
2019-May-11 07:00N 38°43' W 009°08'0 0.0
2019-May-11 06:30N 38°43' W 009°08'0 0.0
2019-May-11 06:00N 38°43' W 009°08'0 0.0
2019-May-11 05:30N 38°43' W 009°08'0 0.0
2019-May-11 05:00N 38°43' W 009°08'0 0.0
2019-May-11 04:27N 38°43' W 009°08'0 0.0
2019-May-11 04:00N 38°43' W 009°08'0 0.0
2019-May-11 03:29N 38°43' W 009°08'0 0.0
2019-May-11 02:59N 38°43' W 009°08'0 0.0
2019-May-11 02:29N 38°43' W 009°08'0 0.0
2019-May-11 01:59N 38°43' W 009°08'0 0.0
2019-May-11 01:30N 38°43' W 009°08'0 0.0
2019-May-11 00:59N 38°43' W 009°08'0 0.0
2019-May-11 00:29N 38°43' W 009°08'0 0.0
2019-May-10 23:59N 38°43' W 009°08'0 0.0
2019-May-10 23:29N 38°43' W 009°08'0 0.0
2019-May-10 22:59N 38°43' W 009°08'0 0.0
2019-May-10 22:29N 38°43' W 009°08'0 0.0
2019-May-10 21:59N 38°43' W 009°08'0 0.0
2019-May-10 21:29N 38°43' W 009°08'0 0.0
2019-May-10 20:59N 38°43' W 009°08'0 0.0
2019-May-10 20:25N 38°43' W 009°08'0 0.0
2019-May-10 19:52N 38°43' W 009°08'0 0.0
2019-May-10 19:25N 38°43' W 009°08'0 0.0
2019-May-10 18:58N 38°43' W 009°08'0 0.0
2019-May-10 18:28N 38°43' W 009°08'0 0.0
2019-May-10 17:58N 38°43' W 009°08'0 0.0
2019-May-10 17:30N 38°43' W 009°08'  
Track history (hours):
 
Tides and Currents Weather Stations Pressure Air Temp Water Temp Dewpoint Dewpoint Depression Visibility Wind Speed Wind Dir Waves Ship Positions

M/V C0sta Favolosa

Last reported at 2019-May-20 17:00 UTC. Time now 2019-May-20 17:15 UTC.
Position N 43°12' E 005°09'.

Length 289 m; draft 8.3 m.

Type: Passenger vessel. MMSI: 247311100.

Date/timePositionNaut miles runAvg speedWind from/ knotsBaromVisibWave heightAir tempDewpointWater temp
2019-May-20 17:00N 43°12' E 005°09'1016.8
2019-May-20 16:25N 43°20' E 005°17'2 3.8
2019-May-20 15:58N 43°21' E 005°20'0 0.0
2019-May-20 15:22N 43°21' E 005°20'0 0.0
2019-May-20 11:37N 43°21' E 005°20'0 0.0
2019-May-20 11:28N 43°21' E 005°20'0 0.0
2019-May-20 10:58N 43°21' E 005°20'0 0.0
2019-May-20 10:28N 43°21' E 005°20'0 0.0
2019-May-20 09:58N 43°21' E 005°20'0 0.0
2019-May-20 09:28N 43°21' E 005°20'0 0.0
2019-May-20 08:55N 43°21' E 005°20'0 0.0
2019-May-20 05:21N 43°21' E 005°20'1 2.0
2019-May-20 05:01N 43°21' E 005°19'5 9.4
2019-May-20 04:31N 43°18' E 005°14'813.9
2019-May-20 03:58N 43°11' E 005°11'7012.2
2019-May-19 22:13N 42°57' E 006°44'519.7
2019-May-19 21:59N 42°59' E 006°49'919.4
2019-May-19 21:30N 43°05' E 006°60'1019.5
2019-May-19 21:00N 43°11' E 007°10'1019.4
2019-May-19 20:30N 43°18' E 007°20'1019.8
2019-May-19 20:00N 43°24' E 007°30'1020.1
2019-May-19 19:30N 43°31' E 007°40'1019.9
2019-May-19 19:00N 43°38' E 007°50'1020.1
2019-May-19 18:30N 43°44' E 008°01'1020.1
2019-May-19 18:00N 43°51' E 008°11'1019.7
2019-May-19 17:30N 43°58' E 008°20'1019.5
2019-May-19 17:00N 44°06' E 008°28'918.5
2019-May-19 16:30N 44°14' E 008°34'510.5
2019-May-19 16:00N 44°19' E 008°30'1 1.4
2019-May-19 15:28N 44°19' E 008°29'0 0.0
2019-May-19 14:58N 44°19' E 008°29'0 0.0
2019-May-19 14:28N 44°19' E 008°29'0 0.0
2019-May-19 13:58N 44°19' E 008°29'0 0.0
2019-May-19 13:28N 44°19' E 008°29'0 0.0
2019-May-19 12:58N 44°19' E 008°29'0 0.0
2019-May-19 12:28N 44°19' E 008°29'0 0.0
2019-May-19 11:58N 44°19' E 008°29'0 0.0
2019-May-19 11:28N 44°19' E 008°29'0 0.0
2019-May-19 10:58N 44°19' E 008°29'0 0.0
2019-May-19 10:27N 44°19' E 008°29'0 0.0
2019-May-19 10:00N 44°19' E 008°29'0 0.0
2019-May-19 09:30N 44°19' E 008°29'0 0.0
2019-May-19 09:00N 44°19' E 008°29'0 0.0
2019-May-19 08:30N 44°19' E 008°29'0 0.0
2019-May-19 08:00N 44°19' E 008°29'0 0.0
2019-May-19 07:30N 44°19' E 008°29'0 0.0
2019-May-19 07:00N 44°19' E 008°29'0 0.0
2019-May-19 06:30N 44°19' E 008°29'0 0.0
2019-May-19 05:59N 44°19' E 008°29'0 0.0
2019-May-19 05:29N 44°19' E 008°29'0 0.8
2019-May-19 05:00N 44°19' E 008°30'2 4.0
2019-May-19 04:30N 44°18' E 008°32'510.8
2019-May-19 04:00N 44°13' E 008°34'713.7
2019-May-19 03:30N 44°06' E 008°34'713.3
2019-May-19 03:00N 43°59' E 008°34'713.3
2019-May-19 02:30N 43°53' E 008°35'713.2
2019-May-19 02:00N 43°46' E 008°36'713.0
2019-May-19 01:30N 43°40' E 008°38'612.6
2019-May-19 01:00N 43°33' E 008°38'612.3
2019-May-19 00:30N 43°27' E 008°38'612.2
2019-May-19 00:00N 43°21' E 008°38'712.5
2019-May-18 23:27N 43°14' E 008°41'612.4
2019-May-18 23:00N 43°10' E 008°36'713.5
2019-May-18 22:30N 43°07' E 008°28'713.1
2019-May-18 22:00N 43°06' E 008°19'713.3
2019-May-18 21:30N 43°08' E 008°10'612.6
2019-May-18 21:00N 43°07' E 008°02'611.2
2019-May-18 20:30N 43°11' E 007°56'510.6
2019-May-18 20:00N 43°13' E 007°50'611.7
2019-May-18 19:31N 43°09' E 007°43'713.0
2019-May-18 19:00N 43°09' E 007°35'611.7
2019-May-18 18:30N 43°13' E 007°28'612.3
2019-May-18 18:01N 43°08' E 007°24'510.4
2019-May-18 17:30N 43°12' E 007°19'510.3
2019-May-18 17:00N 43°12' E 007°12'612.8
2019-May-18 16:30N 43°07' E 007°06'613.0
2019-May-18 16:01N 43°02' E 006°60'712.9
2019-May-18 15:30N 42°58' E 006°54'812.5
2019-May-18 14:53N 42°52' E 006°46'512.4
2019-May-18 14:30N 42°48' E 006°42'612.4
2019-May-18 14:01N 42°44' E 006°36'1012.5
2019-May-18 13:12N 42°37' E 006°27'3512.5
2019-May-18 10:26N 42°47' E 005°42'2011.2
2019-May-18 08:40N 42°46' E 005°15'13810.4
2019-May-17 19:23N 41°24' E 002°46'411.6
2019-May-17 19:00N 41°22' E 002°40'611.9
2019-May-17 18:30N 41°18' E 002°34'611.8
2019-May-17 18:00N 41°16' E 002°27'612.0
2019-May-17 17:30N 41°14' E 002°19'510.7
2019-May-17 17:00N 41°15' E 002°12'611.6
2019-May-17 16:30N 41°20' E 002°10'1 1.9
2019-May-17 15:59N 41°21' E 002°11'0 0.0
2019-May-17 15:29N 41°21' E 002°11'0 0.0
2019-May-17 14:59N 41°21' E 002°11'0 0.0
2019-May-17 14:29N 41°21' E 002°11'0 0.0
2019-May-17 13:59N 41°21' E 002°11'0 0.0
2019-May-17 13:29N 41°21' E 002°11'0 0.0
2019-May-17 12:58N 41°21' E 002°11'0 0.0
2019-May-17 12:28N 41°21' E 002°11'0 0.0
2019-May-17 11:58N 41°21' E 002°11'0 0.0
2019-May-17 11:25N 41°21' E 002°11'0 0.0
2019-May-17 10:56N 41°21' E 002°11'0 0.0
2019-May-17 10:29N 41°21' E 002°11'0 0.0
2019-May-17 09:59N 41°21' E 002°11'0 0.0
2019-May-17 09:29N 41°21' E 002°11'0 0.0
2019-May-17 08:59N 41°21' E 002°11'0 0.0
2019-May-17 08:29N 41°21' E 002°11'0 0.0
2019-May-17 07:59N 41°21' E 002°11'0 0.0
2019-May-17 07:29N 41°21' E 002°11'0 0.0
2019-May-17 06:59N 41°21' E 002°11'0 0.0
2019-May-17 06:29N 41°21' E 002°11'0 0.0
2019-May-17 05:59N 41°21' E 002°11'2 1.7
2019-May-17 04:44N 41°19' E 002°10'3 9.2
2019-May-17 04:23N 41°16' E 002°12'16915.1
2019-May-16 17:12N 43°08' E 005°02'418.7
2019-May-16 16:59N 43°11' E 005°06'918.3
2019-May-16 16:31N 43°17' E 005°14'6 9.2
2019-May-16 15:54N 43°21' E 005°20'0 0.0
2019-May-16 05:37N 43°21' E 005°20'0 1.1
2019-May-16 05:30N 43°21' E 005°20'2 4.4
2019-May-16 05:00N 43°21' E 005°17'611.2
2019-May-16 04:29N 43°16' E 005°11'7111.9
2019-May-15 22:29N 42°56' E 006°44'1019.6
2019-May-15 21:59N 43°01' E 006°55'1019.8
2019-May-15 21:29N 43°08' E 007°05'919.8
2019-May-15 21:01N 43°14' E 007°15'1019.8
2019-May-15 20:31N 43°20' E 007°25'1019.8
2019-May-15 20:01N 43°27' E 007°36'1019.9
2019-May-15 19:31N 43°34' E 007°46'1019.9
2019-May-15 19:01N 43°39' E 007°57'1019.8
2019-May-15 18:31N 43°45' E 008°08'1019.7
2019-May-15 17:59N 43°53' E 008°17'919.5
2019-May-15 17:31N 44°01' E 008°24'1019.4
2019-May-15 17:01N 44°09' E 008°31'815.9
2019-May-15 16:31N 44°17' E 008°32'2 4.2
2019-May-15 16:00N 44°19' E 008°29'0 0.2
2019-May-15 15:29N 44°19' E 008°29'0 0.0
2019-May-15 14:59N 44°19' E 008°29'0 0.0
2019-May-15 14:29N 44°19' E 008°29'0 0.0
2019-May-15 13:59N 44°19' E 008°29'0 0.0
2019-May-15 13:29N 44°19' E 008°29'0 0.0
2019-May-15 12:59N 44°19' E 008°29'0 0.0
2019-May-15 12:29N 44°19' E 008°29'0 0.0
2019-May-15 11:59N 44°19' E 008°29'0 0.0
2019-May-15 11:29N 44°19' E 008°29'0 0.0
2019-May-15 10:59N 44°19' E 008°29'0 0.0
2019-May-15 10:29N 44°19' E 008°29'0 0.0
2019-May-15 09:59N 44°19' E 008°29'0 0.0
2019-May-15 09:29N 44°19' E 008°29'0 0.0
2019-May-15 08:59N 44°19' E 008°29'0 0.0
2019-May-15 08:29N 44°19' E 008°29'0 0.0
2019-May-15 07:59N 44°19' E 008°29'0 0.0
2019-May-15 07:29N 44°19' E 008°29'0 0.0
2019-May-15 06:59N 44°19' E 008°29'0 0.0
2019-May-15 06:29N 44°19' E 008°29'0 0.0
2019-May-15 05:59N 44°19' E 008°29'0 0.0
2019-May-15 05:29N 44°19' E 008°29'0 0.8
2019-May-15 05:00N 44°19' E 008°30'3 5.1
2019-May-15 04:31N 44°17' E 008°32'713.5
2019-May-15 04:00N 44°10' E 008°32'1019.6
2019-May-15 03:30N 44°02' E 008°24'918.9
2019-May-15 03:00N 43°55' E 008°17'918.6
2019-May-15 02:30N 43°48' E 008°07'917.8
2019-May-15 02:00N 43°42' E 007°58'917.8
2019-May-15 01:30N 43°36' E 007°49'918.0
2019-May-15 01:00N 43°30' E 007°40'918.4
2019-May-15 00:30N 43°24' E 007°31'1121.1
2019-May-15 00:00N 43°17' E 007°20'1121.4
2019-May-14 23:30N 43°10' E 007°09'1121.3
2019-May-14 23:00N 43°03' E 006°58'1121.1
2019-May-14 22:30N 42°55' E 006°48'2021.1
2019-May-14 21:34N 42°44' E 006°25'12321.7
2019-May-14 15:54N 41°50' E 003°56'3221.5
2019-May-14 14:25N 41°35' E 003°18'2021.2
2019-May-14 13:28N 41°27' E 002°53'1021.3
2019-May-14 13:00N 41°23' E 002°42'1121.5
2019-May-14 12:30N 41°18' E 002°29'1020.9
2019-May-14 12:00N 41°15' E 002°15'611.2
2019-May-14 11:30N 41°19' E 002°10'2 4.4
2019-May-14 10:59N 41°21' E 002°10'0 0.0
2019-May-14 10:29N 41°21' E 002°10'0 0.0
2019-May-14 09:55N 41°21' E 002°10'0 0.0
2019-May-14 09:30N 41°21' E 002°10'0 0.0
2019-May-14 09:00N 41°21' E 002°10'0 0.0
2019-May-14 08:29N 41°21' E 002°10'0 0.0
2019-May-14 07:59N 41°21' E 002°10'0 0.0
2019-May-14 07:29N 41°21' E 002°10'0 0.0
2019-May-14 06:59N 41°21' E 002°10'0 0.0
2019-May-14 06:29N 41°21' E 002°10'0 0.0
2019-May-14 05:59N 41°21' E 002°10'0 0.0
2019-May-14 05:29N 41°21' E 002°10'0 0.9
2019-May-14 05:00N 41°21' E 002°10'3 5.7
2019-May-14 04:30N 41°18' E 002°11'611.0
2019-May-14 04:00N 41°12' E 002°10'612.9
2019-May-14 03:30N 41°07' E 002°06'612.8
2019-May-14 03:00N 41°01' E 002°03'713.1
2019-May-14 02:30N 40°55' E 001°59'713.2
2019-May-14 01:58N 40°48' E 001°55'2113.6
2019-May-14 00:24N 40°29' E 001°43'47910.6
2019-May-12 03:13N 36°31' W 007°09'2221.1
2019-May-12 02:10N 36°31' W 007°37'420.8
2019-May-12 01:59N 36°31' W 007°42'1120.9
2019-May-12 01:27N 36°32' W 007°55'921.2
2019-May-12 01:00N 36°32' W 008°07'1121.4
2019-May-12 00:30N 36°31' W 008°21'1121.4
2019-May-11 23:59N 36°31' W 008°34'1021.5
2019-May-11 23:30N 36°32' W 008°47'1121.7
2019-May-11 23:00N 36°32' W 009°01'1121.6
2019-May-11 22:30N 36°33' W 009°14'1020.7
2019-May-11 22:01N 36°39' W 009°24'1121.3
2019-May-11 21:31N 36°48' W 009°32'1121.6
2019-May-11 21:00N 36°58' W 009°35'1121.8
2019-May-11 20:30N 37°09' W 009°35'1121.8
2019-May-11 20:00N 37°20' W 009°34'1121.6
2019-May-11 19:31N 37°31' W 009°33'1121.8
2019-May-11 19:01N 37°42' W 009°32'1121.7
2019-May-11 18:31N 37°53' W 009°31'1121.7
2019-May-11 18:01N 38°03' W 009°30'1122.0
2019-May-11 17:30N 38°14' W 009°28'1121.9
2019-May-11 17:01N 38°25' W 009°27'1020.9
2019-May-11 16:31N 38°36' W 009°25'816.5
2019-May-11 16:00N 38°41' W 009°17'611.2
2019-May-11 15:30N 38°42' W 009°10'2 4.0
2019-May-11 15:00N 38°43' W 009°08'0 0.0
2019-May-11 14:30N 38°43' W 009°08'0 0.0
2019-May-11 14:00N 38°43' W 009°08'0 0.0
2019-May-11 13:30N 38°43' W 009°08'0 0.0
2019-May-11 13:00N 38°43' W 009°08'0 0.0
2019-May-11 12:30N 38°43' W 009°08'0 0.0
2019-May-11 11:58N 38°43' W 009°08'0 0.0
2019-May-11 11:28N 38°43' W 009°08'0 0.0
2019-May-11 10:58N 38°43' W 009°08'0 0.0
2019-May-11 10:28N 38°43' W 009°08'0 0.0
2019-May-11 10:00N 38°43' W 009°08'0 0.0
2019-May-11 09:28N 38°43' W 009°08'0 0.0
2019-May-11 08:58N 38°43' W 009°08'0 0.0
2019-May-11 08:28N 38°43' W 009°08'0 0.0
2019-May-11 07:58N 38°43' W 009°08'0 0.0
2019-May-11 07:29N 38°43' W 009°08'0 0.0
2019-May-11 07:00N 38°43' W 009°08'0 0.0
2019-May-11 06:30N 38°43' W 009°08'0 0.0
2019-May-11 06:00N 38°43' W 009°08'0 0.0
2019-May-11 05:30N 38°43' W 009°08'0 0.0
2019-May-11 05:00N 38°43' W 009°08'0 0.0
2019-May-11 04:27N 38°43' W 009°08'0 0.0
2019-May-11 04:00N 38°43' W 009°08'0 0.0
2019-May-11 03:29N 38°43' W 009°08'0 0.0
2019-May-11 02:59N 38°43' W 009°08'0 0.0
2019-May-11 02:29N 38°43' W 009°08'0 0.0
2019-May-11 01:59N 38°43' W 009°08'0 0.0
2019-May-11 01:30N 38°43' W 009°08'0 0.0
2019-May-11 00:59N 38°43' W 009°08'0 0.0
2019-May-11 00:29N 38°43' W 009°08'0 0.0
2019-May-10 23:59N 38°43' W 009°08'0 0.0
2019-May-10 23:29N 38°43' W 009°08'0 0.0
2019-May-10 22:59N 38°43' W 009°08'0 0.0
2019-May-10 22:29N 38°43' W 009°08'0 0.0
2019-May-10 21:59N 38°43' W 009°08'0 0.0
2019-May-10 21:29N 38°43' W 009°08'0 0.0
2019-May-10 20:59N 38°43' W 009°08'0 0.0
2019-May-10 20:25N 38°43' W 009°08'0 0.0
2019-May-10 19:52N 38°43' W 009°08'0 0.0
2019-May-10 19:25N 38°43' W 009°08'0 0.0
2019-May-10 18:58N 38°43' W 009°08'0 0.0
2019-May-10 18:28N 38°43' W 009°08'0 0.0
2019-May-10 17:58N 38°43' W 009°08'0 0.0
2019-May-10 17:30N 38°43' W 009°08'  

Dump ship's entire track history